createdAt,value
2019-05-06T00:00:35.288Z,0.0000
2019-05-06T00:01:38.307Z,0.0000
2019-05-06T00:02:43.448Z,0.0000
2019-05-06T00:03:47.293Z,0.0000
2019-05-06T00:04:51.287Z,0.0000
2019-05-06T00:05:54.466Z,0.0000
2019-05-06T00:06:58.275Z,0.0000
2019-05-06T00:08:03.897Z,0.0000
2019-05-06T00:09:07.289Z,0.0000
2019-05-06T00:10:13.392Z,0.0000
2019-05-06T00:11:16.303Z,0.0000
2019-05-06T00:12:20.286Z,0.0000
2019-05-06T00:13:24.147Z,0.0000
2019-05-06T00:14:27.266Z,0.0000
2019-05-06T00:15:31.277Z,0.0000
2019-05-06T00:16:34.906Z,0.0000
2019-05-06T00:17:38.325Z,0.0000
2019-05-06T00:18:41.306Z,0.0000
2019-05-06T00:19:45.317Z,0.0000
2019-05-06T00:20:48.248Z,0.0000
2019-05-06T00:21:51.281Z,0.0000
2019-05-06T00:22:55.275Z,0.0000
2019-05-06T00:23:58.286Z,0.0000
2019-05-06T00:25:02.297Z,0.0000
2019-05-06T00:26:05.283Z,0.0000
2019-05-06T00:27:09.302Z,0.0000
2019-05-06T00:28:13.657Z,0.0000
2019-05-06T00:29:17.317Z,0.0000
2019-05-06T00:30:21.288Z,0.0000
2019-05-06T00:31:24.285Z,0.0000
2019-05-06T00:32:28.290Z,0.0000
2019-05-06T00:33:31.292Z,0.0000
2019-05-06T00:34:35.337Z,0.0000
2019-05-06T00:35:38.294Z,0.0000
2019-05-06T00:36:43.285Z,0.0000
2019-05-06T00:37:47.295Z,0.0000
2019-05-06T00:38:50.302Z,0.0000
2019-05-06T00:39:54.320Z,0.0000
2019-05-06T00:40:57.307Z,0.0000
2019-05-06T00:42:01.324Z,0.0000
2019-05-06T00:43:04.818Z,0.0000
2019-05-06T00:44:08.317Z,0.0000
2019-05-06T00:45:13.592Z,0.0000
2019-05-06T00:46:16.285Z,0.0000
2019-05-06T00:47:20.286Z,0.0000
2019-05-06T00:48:24.435Z,0.0000
2019-05-06T00:49:28.267Z,0.0000
2019-05-06T00:50:31.295Z,0.0000
2019-05-06T00:51:34.300Z,0.0000
2019-05-06T00:52:38.308Z,0.0000
2019-05-06T00:53:41.265Z,0.0000
2019-05-06T00:54:45.267Z,0.0000
2019-05-06T00:55:48.335Z,0.0000
2019-05-06T00:56:51.280Z,0.0000
2019-05-06T00:57:54.540Z,0.0000
2019-05-06T00:58:58.283Z,0.0000
2019-05-06T01:00:04.168Z,0.0000
2019-05-06T01:01:07.303Z,0.0000
2019-05-06T01:02:11.294Z,0.0000
2019-05-06T01:03:14.298Z,0.0000
2019-05-06T01:04:18.316Z,0.0000
2019-05-06T01:05:21.285Z,0.0000
2019-05-06T01:06:24.660Z,0.0000
2019-05-06T01:07:28.297Z,0.0000
2019-05-06T01:08:31.286Z,0.0000
2019-05-06T01:09:35.317Z,0.0000
2019-05-06T01:10:38.301Z,0.0000
2019-05-06T01:11:42.316Z,0.0000
2019-05-06T01:12:47.279Z,0.0000
2019-05-06T01:13:50.310Z,0.0000
2019-05-06T01:14:54.626Z,0.0000
2019-05-06T01:15:58.275Z,0.0000
2019-05-06T01:17:01.334Z,0.0000
2019-05-06T01:18:04.362Z,0.0000
2019-05-06T01:19:08.288Z,0.0000
2019-05-06T01:20:11.261Z,0.0000
2019-05-06T01:21:14.667Z,0.0000
2019-05-06T01:22:18.306Z,0.0000
2019-05-06T01:23:23.379Z,0.0000
2019-05-06T01:24:27.265Z,0.0000
2019-05-06T01:25:30.291Z,0.0000
2019-05-06T01:26:34.339Z,0.0000
2019-05-06T01:27:37.278Z,0.0000
2019-05-06T01:28:40.296Z,0.0000
2019-05-06T01:29:44.288Z,0.0000
2019-05-06T01:30:47.311Z,0.0000
2019-05-06T01:31:51.337Z,0.0000
2019-05-06T01:32:54.488Z,0.0000
2019-05-06T01:33:58.288Z,0.0000
2019-05-06T01:35:00.271Z,0.0000
2019-05-06T01:36:04.537Z,0.0000
2019-05-06T01:37:07.320Z,0.0000
2019-05-06T01:38:10.279Z,0.0000
2019-05-06T01:39:14.298Z,0.0000
2019-05-06T01:40:17.307Z,0.0000
2019-05-06T01:41:21.265Z,0.0000
2019-05-06T01:42:24.656Z,0.0000
2019-05-06T01:43:27.286Z,0.0000
2019-05-06T01:44:30.425Z,0.0000
2019-05-06T01:45:34.874Z,0.0000
2019-05-06T01:46:38.320Z,0.0000
2019-05-06T01:47:41.300Z,0.0000
2019-05-06T01:48:45.289Z,0.0000
2019-05-06T01:49:48.288Z,0.0000
2019-05-06T01:50:51.299Z,0.0000
2019-05-06T01:51:55.294Z,0.0000
2019-05-06T01:52:58.312Z,0.0000
2019-05-06T01:54:03.752Z,0.0000
2019-05-06T01:55:07.286Z,0.0000
2019-05-06T01:56:11.304Z,0.0000
2019-05-06T01:57:14.274Z,0.0000
2019-05-06T01:58:17.350Z,0.0000
2019-05-06T01:59:21.272Z,0.0000
2019-05-06T02:00:24.294Z,0.0000
2019-05-06T02:01:28.283Z,0.0000
2019-05-06T02:02:31.303Z,0.0000
2019-05-06T02:03:35.328Z,0.0000
2019-05-06T02:04:38.292Z,0.0000
2019-05-06T02:05:41.270Z,0.0000
2019-05-06T02:06:45.290Z,0.0000
2019-05-06T02:07:48.256Z,0.0000
2019-05-06T02:08:53.994Z,0.0000
2019-05-06T02:09:57.310Z,0.0000
2019-05-06T02:11:01.305Z,0.0000
2019-05-06T02:12:04.678Z,0.0000
2019-05-06T02:13:08.325Z,0.0000
2019-05-06T02:14:13.994Z,0.0000
2019-05-06T02:15:16.291Z,0.0000
2019-05-06T02:16:20.275Z,0.0000
2019-05-06T02:17:23.875Z,0.0000
2019-05-06T02:18:27.311Z,0.0000
2019-05-06T02:19:30.269Z,0.0000
2019-05-06T02:20:33.980Z,0.0000
2019-05-06T02:21:37.270Z,0.0000
2019-05-06T02:22:40.304Z,0.0000
2019-05-06T02:23:44.298Z,0.0000
2019-05-06T02:24:47.297Z,0.0000
2019-05-06T02:25:51.261Z,0.0000
2019-05-06T02:26:54.467Z,0.0000
2019-05-06T02:27:57.304Z,0.0000
2019-05-06T02:29:04.238Z,0.0000
2019-05-06T02:30:07.282Z,0.0000
2019-05-06T02:31:11.298Z,0.0000
2019-05-06T02:32:25.528Z,0.0000
2019-05-06T02:33:24.733Z,0.0000
2019-05-06T02:34:28.357Z,0.0000
2019-05-06T02:35:31.283Z,0.0000
2019-05-06T02:36:35.303Z,0.0000
2019-05-06T02:37:38.265Z,0.0000
2019-05-06T02:38:50.472Z,0.0000
2019-05-06T02:39:53.135Z,0.0000
2019-05-06T02:40:57.262Z,0.0000
2019-05-06T02:42:00.298Z,0.0000
2019-05-06T02:43:04.274Z,0.0000
2019-05-06T02:44:10.250Z,0.0000
2019-05-06T02:45:15.324Z,0.0000
2019-05-06T02:46:19.291Z,0.0000
2019-05-06T02:47:23.012Z,0.0000
2019-05-06T02:48:27.293Z,0.0000
2019-05-06T02:49:32.795Z,0.0000
2019-05-06T02:50:36.299Z,0.0000
2019-05-06T02:51:40.308Z,0.0000
2019-05-06T02:52:44.049Z,0.0000
2019-05-06T02:53:48.295Z,0.0000
2019-05-06T02:54:53.691Z,0.0000
2019-05-06T02:55:57.317Z,0.0000
2019-05-06T02:57:00.265Z,0.0000
2019-05-06T02:58:03.338Z,0.0000
2019-05-06T02:59:07.271Z,0.0000
2019-05-06T03:00:13.085Z,0.0000
2019-05-06T03:01:17.318Z,0.0000
2019-05-06T03:02:35.593Z,0.0000
2019-05-06T03:03:28.287Z,0.0000
2019-05-06T03:04:33.189Z,0.0000
2019-05-06T03:05:36.318Z,0.0000
2019-05-06T03:06:40.306Z,0.0000
2019-05-06T03:07:43.732Z,0.0000
2019-05-06T03:08:47.289Z,0.0000
2019-05-06T03:09:53.173Z,0.0000
2019-05-06T03:10:57.337Z,0.0000
2019-05-06T03:12:03.341Z,0.0000
2019-05-06T03:13:07.299Z,0.0000
2019-05-06T03:14:13.954Z,0.0000
2019-05-06T03:15:17.331Z,0.0000
2019-05-06T03:16:23.764Z,0.0000
2019-05-06T03:17:27.296Z,0.0000
2019-05-06T03:18:32.765Z,0.0000
2019-05-06T03:19:36.285Z,0.0000
2019-05-06T03:20:39.300Z,0.0000
2019-05-06T03:21:44.817Z,0.0000
2019-05-06T03:22:48.291Z,0.0000
2019-05-06T03:23:54.290Z,0.0000
2019-05-06T03:24:57.301Z,0.0000
2019-05-06T03:26:03.732Z,1.0000
2019-05-06T03:27:09.286Z,1.0000
2019-05-06T03:28:13.258Z,0.0000
2019-05-06T03:29:17.287Z,1.0000
2019-05-06T03:30:25.065Z,1.0000
2019-05-06T03:31:28.360Z,1.0000
2019-05-06T03:32:37.568Z,2.0000
2019-05-06T03:33:56.904Z,2.0000
2019-05-06T03:35:07.810Z,3.0000
2019-05-06T03:36:06.126Z,3.0000
2019-05-06T03:37:07.204Z,5.0000
2019-05-06T03:38:13.752Z,5.0000
2019-05-06T03:39:17.282Z,6.0000
2019-05-06T03:40:22.965Z,8.0000
2019-05-06T03:41:26.664Z,9.0000
2019-05-06T03:42:33.288Z,10.0000
2019-05-06T03:43:36.279Z,12.0000
2019-05-06T03:44:40.301Z,15.0000
2019-05-06T03:45:43.292Z,17.0000
2019-05-06T03:46:47.287Z,20.0000
2019-05-06T03:47:50.306Z,23.0000
2019-05-06T03:48:54.297Z,29.0000
2019-05-06T03:49:57.281Z,33.0000
2019-05-06T03:51:00.302Z,39.0000
2019-05-06T03:52:04.300Z,46.0000
2019-05-06T03:53:07.330Z,53.0000
2019-05-06T03:54:12.784Z,61.0000
2019-05-06T03:55:16.275Z,70.0000
2019-05-06T03:56:23.821Z,79.0000
2019-05-06T03:57:27.272Z,90.0000
2019-05-06T03:58:29.342Z,101.0000
2019-05-06T03:59:33.787Z,115.0000
2019-05-06T04:00:37.284Z,130.0000
2019-05-06T04:01:42.834Z,145.0000
2019-05-06T04:02:45.424Z,162.0000
2019-05-06T04:03:53.717Z,181.0000
2019-05-06T04:04:57.281Z,208.0000
2019-05-06T04:06:00.371Z,232.0000
2019-05-06T04:07:04.286Z,255.0000
2019-05-06T04:08:07.309Z,278.0000
2019-05-06T04:09:13.221Z,303.0000
2019-05-06T04:10:16.346Z,334.0000
2019-05-06T04:11:22.667Z,365.0000
2019-05-06T04:12:25.309Z,400.0000
2019-05-06T04:13:28.341Z,431.0000
2019-05-06T04:14:33.785Z,459.0000
2019-05-06T04:15:37.272Z,484.0000
2019-05-06T04:16:44.123Z,504.0000
2019-05-06T04:17:47.281Z,526.0000
2019-05-06T04:18:53.741Z,548.0000
2019-05-06T04:19:57.344Z,576.0000
2019-05-06T04:21:03.595Z,608.0000
2019-05-06T04:22:07.296Z,642.0000
2019-05-06T04:23:12.977Z,675.0000
2019-05-06T04:24:17.290Z,713.0000
2019-05-06T04:25:23.177Z,758.0000
2019-05-06T04:26:27.296Z,818.0000
2019-05-06T04:27:33.278Z,876.0000
2019-05-06T04:28:37.308Z,942.0000
2019-05-06T04:29:42.794Z,999.0000
2019-05-06T04:30:46.317Z,1057.0000
2019-05-06T04:31:50.326Z,1110.0000
2019-05-06T04:32:53.567Z,1169.0000
2019-05-06T04:34:09.982Z,1227.0000
2019-05-06T04:35:05.300Z,1268.0000
2019-05-06T04:36:08.342Z,1292.0000
2019-05-06T04:37:14.463Z,1315.0000
2019-05-06T04:38:18.303Z,1365.0000
2019-05-06T04:39:23.387Z,1432.0000
2019-05-06T04:40:27.307Z,1495.0000
2019-05-06T04:41:34.135Z,1569.0000
2019-05-06T04:42:37.262Z,1662.0000
2019-05-06T04:43:40.319Z,1783.0000
2019-05-06T04:44:44.289Z,1908.0000
2019-05-06T04:45:47.289Z,2025.0000
2019-05-06T04:46:54.087Z,2110.0000
2019-05-06T04:47:57.297Z,2153.0000
2019-05-06T04:49:03.834Z,2171.0000
2019-05-06T04:50:07.286Z,2250.0000
2019-05-06T04:51:13.390Z,2323.0000
2019-05-06T04:52:17.351Z,2402.0000
2019-05-06T04:53:26.474Z,2503.0000
2019-05-06T04:54:28.283Z,2651.0000
2019-05-06T04:55:33.619Z,2757.0000
2019-05-06T04:56:37.315Z,2831.0000
2019-05-06T04:57:40.344Z,2883.0000
2019-05-06T04:58:43.289Z,2970.0000
2019-05-06T04:59:47.330Z,3021.0000
2019-05-06T05:00:52.810Z,2994.0000
2019-05-06T05:01:57.346Z,2979.0000
2019-05-06T05:02:59.319Z,3019.0000
2019-05-06T05:04:03.679Z,3101.0000
2019-05-06T05:05:06.366Z,3149.0000
2019-05-06T05:06:09.280Z,3166.0000
2019-05-06T05:07:13.310Z,3109.0000
2019-05-06T05:08:16.317Z,3102.0000
2019-05-06T05:09:22.865Z,3075.0000
2019-05-06T05:10:26.274Z,3086.0000
2019-05-06T05:11:33.091Z,3100.0000
2019-05-06T05:12:36.309Z,3107.0000
2019-05-06T05:13:39.306Z,3141.0000
2019-05-06T05:14:43.284Z,3073.0000
2019-05-06T05:15:46.306Z,3020.0000
2019-05-06T05:16:50.304Z,2949.0000
2019-05-06T05:17:53.324Z,2894.0000
2019-05-06T05:18:57.298Z,2863.0000
2019-05-06T05:20:02.107Z,2796.0000
2019-05-06T05:21:05.313Z,2737.0000
2019-05-06T05:22:09.276Z,2712.0000
2019-05-06T05:23:12.378Z,2694.0000
2019-05-06T05:24:16.303Z,2689.0000
2019-05-06T05:25:19.309Z,2687.0000
2019-05-06T05:26:23.302Z,2687.0000
2019-05-06T05:27:26.273Z,2653.0000
2019-05-06T05:28:29.346Z,2638.0000
2019-05-06T05:29:33.292Z,2632.0000
2019-05-06T05:30:36.340Z,2649.0000
2019-05-06T05:31:40.306Z,2681.0000
2019-05-06T05:32:43.334Z,2838.0000
2019-05-06T05:33:47.311Z,3066.0000
2019-05-06T05:34:52.094Z,3337.0000
2019-05-06T05:35:54.311Z,3608.0000
2019-05-06T05:36:58.283Z,3951.0000
2019-05-06T05:38:03.049Z,4363.0000
2019-05-06T05:39:07.325Z,4820.0000
2019-05-06T05:40:10.324Z,5217.0000
2019-05-06T05:41:14.293Z,5454.0000
2019-05-06T05:42:17.298Z,5515.0000
2019-05-06T05:43:20.292Z,5330.0000
2019-05-06T05:44:24.341Z,5093.0000
2019-05-06T05:45:28.317Z,4858.0000
2019-05-06T05:46:33.016Z,4657.0000
2019-05-06T05:47:36.322Z,4486.0000
2019-05-06T05:48:39.369Z,4331.0000
2019-05-06T05:49:42.338Z,4180.0000
2019-05-06T05:50:45.296Z,3972.0000
2019-05-06T05:51:49.303Z,3901.0000
2019-05-06T05:52:52.297Z,3882.0000
2019-05-06T05:53:56.320Z,3868.0000
2019-05-06T05:55:02.576Z,3873.0000
2019-05-06T05:56:06.275Z,4024.0000
2019-05-06T05:57:09.296Z,4246.0000
2019-05-06T05:58:12.931Z,4474.0000
2019-05-06T05:59:16.313Z,4680.0000
2019-05-06T06:00:19.331Z,4851.0000
2019-05-06T06:01:23.414Z,5071.0000
2019-05-06T06:02:26.267Z,5576.0000
2019-05-06T06:03:32.020Z,5861.0000
2019-05-06T06:04:36.282Z,6267.0000
2019-05-06T06:05:39.411Z,6603.0000
2019-05-06T06:06:43.337Z,6779.0000
2019-05-06T06:07:46.352Z,6870.0000
2019-05-06T06:08:52.122Z,6691.0000
2019-05-06T06:09:56.298Z,6775.0000
2019-05-06T06:11:00.341Z,6964.0000
2019-05-06T06:12:03.301Z,7012.0000
2019-05-06T06:13:06.285Z,7124.0000
2019-05-06T06:14:12.569Z,7098.0000
2019-05-06T06:15:16.326Z,6930.0000
2019-05-06T06:16:20.324Z,6795.0000
2019-05-06T06:17:23.357Z,6788.0000
2019-05-06T06:18:27.311Z,7055.0000
2019-05-06T06:19:30.317Z,7497.0000
2019-05-06T06:20:33.324Z,8126.0000
2019-05-06T06:21:37.333Z,8853.0000
2019-05-06T06:22:42.449Z,9325.0000
2019-05-06T06:23:46.309Z,10225.0000
2019-05-06T06:24:49.337Z,10040.0000
2019-05-06T06:25:53.328Z,9883.0000
2019-05-06T06:26:56.326Z,9723.0000
2019-05-06T06:28:02.689Z,9823.0000
2019-05-06T06:29:05.338Z,9161.0000
2019-05-06T06:30:08.307Z,9187.0000
2019-05-06T06:31:12.337Z,9346.0000
2019-05-06T06:32:14.329Z,9938.0000
2019-05-06T06:33:18.293Z,10441.0000
2019-05-06T06:34:22.287Z,10578.0000
2019-05-06T06:35:25.316Z,10525.0000
2019-05-06T06:36:29.319Z,9719.0000
2019-05-06T06:37:33.214Z,9385.0000
2019-05-06T06:38:37.299Z,9165.0000
2019-05-06T06:39:42.274Z,9033.0000
2019-05-06T06:40:46.322Z,8981.0000
2019-05-06T06:41:49.258Z,8819.0000
2019-05-06T06:42:52.519Z,9160.0000
2019-05-06T06:43:56.296Z,8759.0000
2019-05-06T06:44:59.304Z,7765.0000
2019-05-06T06:46:03.341Z,7046.0000
2019-05-06T06:47:06.303Z,7725.0000
2019-05-06T06:48:12.224Z,7300.0000
2019-05-06T06:49:15.290Z,6750.0000
2019-05-06T06:50:18.334Z,6097.0000
2019-05-06T06:51:23.552Z,5772.0000
2019-05-06T06:52:27.317Z,5896.0000
2019-05-06T06:53:32.687Z,6085.0000
2019-05-06T06:54:36.327Z,6244.0000
2019-05-06T06:55:39.373Z,5943.0000
2019-05-06T06:56:42.401Z,6207.0000
2019-05-06T06:57:45.328Z,6586.0000
2019-05-06T06:58:49.286Z,6489.0000
2019-05-06T06:59:52.484Z,5981.0000
2019-05-06T07:00:56.284Z,5631.0000
2019-05-06T07:01:59.326Z,5129.0000
2019-05-06T07:03:03.295Z,5114.0000
2019-05-06T07:04:10.444Z,5153.0000
2019-05-06T07:05:24.353Z,5242.0000
2019-05-06T07:06:22.441Z,5316.0000
2019-05-06T07:07:39.532Z,5588.0000
2019-05-06T07:08:37.357Z,6322.0000
2019-05-06T07:09:41.905Z,7455.0000
2019-05-06T07:10:45.314Z,9872.0000
2019-05-06T07:11:48.313Z,10387.0000
2019-05-06T07:12:50.442Z,8198.0000
2019-05-06T07:13:54.298Z,6542.0000
2019-05-06T07:14:57.295Z,6123.0000
2019-05-06T07:16:02.983Z,7480.0000
2019-05-06T07:17:06.300Z,10508.0000
2019-05-06T07:18:13.291Z,13298.0000
2019-05-06T07:19:17.326Z,15848.0000
2019-05-06T07:20:22.869Z,16480.0000
2019-05-06T07:21:26.338Z,15160.0000
2019-05-06T07:22:29.291Z,16528.0000
2019-05-06T07:23:33.336Z,19192.0000
2019-05-06T07:24:36.294Z,20240.0000
2019-05-06T07:25:42.829Z,20224.0000
2019-05-06T07:26:46.285Z,21568.0000
2019-05-06T07:27:48.355Z,23896.0000
2019-05-06T07:28:52.737Z,25352.0000
2019-05-06T07:29:56.300Z,22896.0000
2019-05-06T07:31:14.882Z,19800.0000
2019-05-06T07:32:08.276Z,19672.0000
2019-05-06T07:33:13.340Z,18704.0000
2019-05-06T07:34:17.291Z,16712.0000
2019-05-06T07:35:22.410Z,14672.0000
2019-05-06T07:36:27.338Z,12282.0000
2019-05-06T07:37:32.627Z,9422.0000
2019-05-06T07:38:36.290Z,7055.0000
2019-05-06T07:39:38.272Z,5818.0000
2019-05-06T07:40:42.294Z,5688.0000
2019-05-06T07:41:46.140Z,5670.0000
2019-05-06T07:42:49.289Z,5647.0000
2019-05-06T07:43:53.310Z,5602.0000
2019-05-06T07:44:56.337Z,5619.0000
2019-05-06T07:46:02.460Z,5608.0000
2019-05-06T07:47:06.313Z,5622.0000
2019-05-06T07:48:12.647Z,5639.0000
2019-05-06T07:49:16.343Z,5674.0000
2019-05-06T07:50:19.268Z,5715.0000
2019-05-06T07:51:23.932Z,5759.0000
2019-05-06T07:52:27.358Z,5916.0000
2019-05-06T07:53:32.069Z,6042.0000
2019-05-06T07:54:35.276Z,6063.0000
2019-05-06T07:55:39.309Z,6053.0000
2019-05-06T07:56:42.843Z,5951.0000
2019-05-06T07:57:46.333Z,5800.0000
2019-05-06T07:58:52.762Z,5768.0000
2019-05-06T07:59:56.278Z,5892.0000
2019-05-06T08:01:02.667Z,5920.0000
2019-05-06T08:02:06.298Z,5776.0000
2019-05-06T08:03:10.349Z,5705.0000
2019-05-06T08:04:14.342Z,5696.0000
2019-05-06T08:05:17.301Z,5712.0000
2019-05-06T08:06:22.647Z,5713.0000
2019-05-06T08:07:26.294Z,5715.0000
2019-05-06T08:08:30.353Z,5708.0000
2019-05-06T08:09:33.315Z,5693.0000
2019-05-06T08:10:37.333Z,5699.0000
2019-05-06T08:11:42.155Z,5889.0000
2019-05-06T08:12:45.337Z,6181.0000
2019-05-06T08:13:49.319Z,6330.0000
2019-05-06T08:14:52.548Z,6491.0000
2019-05-06T08:15:56.330Z,6628.0000
2019-05-06T08:16:58.298Z,6531.0000
2019-05-06T08:18:03.485Z,6512.0000
2019-05-06T08:19:07.357Z,6578.0000
2019-05-06T08:20:12.721Z,6770.0000
2019-05-06T08:21:16.337Z,7067.0000
2019-05-06T08:22:19.312Z,7239.0000
2019-05-06T08:23:23.314Z,7327.0000
2019-05-06T08:24:26.346Z,7612.0000
2019-05-06T08:25:32.811Z,8094.0000
2019-05-06T08:26:36.255Z,8292.0000
2019-05-06T08:27:39.307Z,7810.0000
2019-05-06T08:28:44.520Z,8211.0000
2019-05-06T08:29:48.362Z,7357.0000
2019-05-06T08:30:53.122Z,7078.0000
2019-05-06T08:31:56.315Z,7789.0000
2019-05-06T08:33:02.242Z,6932.0000
2019-05-06T08:34:05.303Z,6995.0000
2019-05-06T08:35:09.972Z,7228.0000
2019-05-06T08:36:14.790Z,8197.0000
2019-05-06T08:37:18.301Z,9770.0000
2019-05-06T08:38:22.651Z,12045.0000
2019-05-06T08:39:26.312Z,14199.0000
2019-05-06T08:40:32.089Z,16391.0000
2019-05-06T08:41:35.327Z,18800.0000
2019-05-06T08:42:38.277Z,20352.0000
2019-05-06T08:43:42.331Z,21264.0000
2019-05-06T08:44:45.301Z,20232.0000
2019-05-06T08:45:49.384Z,18350.0000
2019-05-06T08:46:53.254Z,16227.0000
2019-05-06T08:47:57.292Z,14806.0000
2019-05-06T08:49:00.839Z,13552.0000
2019-05-06T08:50:05.305Z,12135.0000
2019-05-06T08:51:09.333Z,11044.0000
2019-05-06T08:52:12.997Z,11532.0000
2019-05-06T08:53:16.308Z,12514.0000
2019-05-06T08:54:19.311Z,13962.0000
2019-05-06T08:55:23.342Z,14331.0000
2019-05-06T08:56:26.324Z,15603.0000
2019-05-06T08:57:29.332Z,21048.0000
2019-05-06T08:58:33.334Z,20208.0000
2019-05-06T08:59:36.341Z,21080.0000
2019-05-06T09:00:40.291Z,20064.0000
2019-05-06T09:01:43.322Z,19504.0000
2019-05-06T09:02:47.307Z,19648.0000
2019-05-06T09:04:05.046Z,20432.0000
2019-05-06T09:04:58.301Z,22312.0000
2019-05-06T09:06:03.168Z,24320.0000
2019-05-06T09:07:07.338Z,27328.0000
2019-05-06T09:08:13.634Z,30080.0000
2019-05-06T09:09:17.369Z,30824.0000
2019-05-06T09:10:22.695Z,30656.0000
2019-05-06T09:11:26.292Z,30616.0000
2019-05-06T09:12:29.320Z,29840.0000
2019-05-06T09:13:33.358Z,29432.0000
2019-05-06T09:14:36.321Z,27448.0000
2019-05-06T09:15:40.307Z,26080.0000
2019-05-06T09:16:43.928Z,24368.0000
2019-05-06T09:17:48.335Z,23032.0000
2019-05-06T09:18:53.341Z,22592.0000
2019-05-06T09:19:56.321Z,22288.0000
2019-05-06T09:21:02.819Z,22376.0000
2019-05-06T09:22:06.302Z,22704.0000
2019-05-06T09:23:12.269Z,23064.0000
2019-05-06T09:24:16.277Z,23232.0000
2019-05-06T09:25:20.324Z,22776.0000
2019-05-06T09:26:23.301Z,22056.0000
2019-05-06T09:27:26.299Z,21144.0000
2019-05-06T09:28:30.347Z,20288.0000
2019-05-06T09:29:33.284Z,20032.0000
2019-05-06T09:30:37.328Z,20200.0000
2019-05-06T09:31:39.327Z,20536.0000
2019-05-06T09:32:43.315Z,20912.0000
2019-05-06T09:33:46.320Z,21360.0000
2019-05-06T09:34:49.283Z,21632.0000
2019-05-06T09:35:53.306Z,22056.0000
2019-05-06T09:36:56.323Z,22488.0000
2019-05-06T09:38:02.209Z,22880.0000
2019-05-06T09:39:05.328Z,23120.0000
2019-05-06T09:40:09.310Z,23312.0000
2019-05-06T09:41:13.342Z,23408.0000
2019-05-06T09:42:16.325Z,23464.0000
2019-05-06T09:43:22.282Z,23648.0000
2019-05-06T09:44:26.333Z,24128.0000
2019-05-06T09:45:29.309Z,24960.0000
2019-05-06T09:46:32.320Z,25960.0000
2019-05-06T09:47:37.273Z,27072.0000
2019-05-06T09:48:42.325Z,28336.0000
2019-05-06T09:49:46.309Z,29168.0000
2019-05-06T09:50:50.419Z,29880.0000
2019-05-06T09:51:53.325Z,30624.0000
2019-05-06T09:52:57.275Z,31296.0000
2019-05-06T09:54:03.742Z,31656.0000
2019-05-06T09:55:07.335Z,34944.0000
2019-05-06T09:56:12.965Z,43416.0000
2019-05-06T09:57:16.314Z,42024.0000
2019-05-06T09:58:22.733Z,38320.0000
2019-05-06T09:59:26.327Z,36624.0000
2019-05-06T10:00:32.694Z,34432.0000
2019-05-06T10:01:36.404Z,33880.0000
2019-05-06T10:02:42.858Z,34016.0000
2019-05-06T10:03:46.333Z,34960.0000
2019-05-06T10:04:49.284Z,32528.0000
2019-05-06T10:05:55.375Z,31616.0000
2019-05-06T10:07:00.103Z,30728.0000
2019-05-06T10:08:04.336Z,29416.0000
2019-05-06T10:09:07.293Z,28896.0000
2019-05-06T10:10:11.316Z,27608.0000
2019-05-06T10:11:13.343Z,26440.0000
2019-05-06T10:12:16.339Z,25176.0000
2019-05-06T10:13:20.308Z,24288.0000
2019-05-06T10:14:23.565Z,23640.0000
2019-05-06T10:15:27.349Z,23280.0000
2019-05-06T10:16:32.394Z,23144.0000
2019-05-06T10:17:36.313Z,23360.0000
2019-05-06T10:18:39.332Z,23776.0000
2019-05-06T10:19:42.886Z,24344.0000
2019-05-06T10:20:47.283Z,24984.0000
2019-05-06T10:21:50.347Z,25600.0000
2019-05-06T10:22:54.323Z,26360.0000
2019-05-06T10:23:57.314Z,27072.0000
2019-05-06T10:25:03.716Z,27944.0000
2019-05-06T10:26:07.303Z,28584.0000
2019-05-06T10:27:12.089Z,28464.0000
2019-05-06T10:28:16.297Z,27856.0000
2019-05-06T10:29:19.312Z,26264.0000
2019-05-06T10:30:23.311Z,25304.0000
2019-05-06T10:31:26.311Z,24704.0000
2019-05-06T10:32:30.318Z,24304.0000
2019-05-06T10:33:33.317Z,23824.0000
2019-05-06T10:34:36.294Z,23216.0000
2019-05-06T10:35:42.685Z,22616.0000
2019-05-06T10:36:46.336Z,22544.0000
2019-05-06T10:37:52.481Z,22840.0000
2019-05-06T10:38:56.325Z,23584.0000
2019-05-06T10:40:02.861Z,24600.0000
2019-05-06T10:41:07.604Z,25736.0000
2019-05-06T10:42:13.211Z,26984.0000
2019-05-06T10:43:17.337Z,28680.0000
2019-05-06T10:44:22.376Z,30464.0000
2019-05-06T10:45:26.305Z,30248.0000
2019-05-06T10:46:28.345Z,30312.0000
2019-05-06T10:47:33.054Z,30448.0000
2019-05-06T10:48:36.336Z,30920.0000
2019-05-06T10:49:39.347Z,31680.0000
2019-05-06T10:50:43.283Z,32752.0000
2019-05-06T10:51:46.351Z,34112.0000
2019-05-06T10:52:51.798Z,35768.0000
2019-05-06T10:53:55.279Z,37456.0000
2019-05-06T10:54:59.329Z,39160.0000
2019-05-06T10:56:02.447Z,40520.0000
2019-05-06T10:57:05.351Z,40928.0000
2019-05-06T10:58:09.269Z,43040.0000
2019-05-06T10:59:12.982Z,52080.0000
2019-05-06T11:00:16.346Z,47112.0000
2019-05-06T11:01:19.320Z,48024.0000
2019-05-06T11:02:23.373Z,45944.0000
2019-05-06T11:03:27.670Z,43696.0000
2019-05-06T11:04:33.144Z,44136.0000
2019-05-06T11:05:37.327Z,43744.0000
2019-05-06T11:06:42.833Z,42904.0000
2019-05-06T11:07:46.317Z,45160.0000
2019-05-06T11:08:48.325Z,46224.0000
2019-05-06T11:09:53.301Z,47280.0000
2019-05-06T11:10:56.359Z,55120.0000
2019-05-06T11:11:59.278Z,53992.0000
2019-05-06T11:13:03.489Z,40056.0000
2019-05-06T11:14:07.330Z,37200.0000
2019-05-06T11:15:12.409Z,37080.0000
2019-05-06T11:16:17.035Z,37136.0000
2019-05-06T11:17:23.264Z,34720.0000
2019-05-06T11:18:27.326Z,31800.0000
2019-05-06T11:19:30.278Z,30928.0000
2019-05-06T11:20:34.333Z,30152.0000
2019-05-06T11:21:37.311Z,29312.0000
2019-05-06T11:22:43.461Z,29256.0000
2019-05-06T11:23:47.347Z,29112.0000
2019-05-06T11:24:51.336Z,29024.0000
2019-05-06T11:25:54.270Z,28696.0000
2019-05-06T11:26:57.292Z,28288.0000
2019-05-06T11:28:02.969Z,28352.0000
2019-05-06T11:29:06.292Z,28696.0000
2019-05-06T11:30:10.308Z,28744.0000
2019-05-06T11:31:14.137Z,28456.0000
2019-05-06T11:32:21.049Z,28096.0000
2019-05-06T11:33:24.325Z,26744.0000
2019-05-06T11:34:27.294Z,25248.0000
2019-05-06T11:35:32.517Z,24032.0000
2019-05-06T11:36:37.631Z,23232.0000
2019-05-06T11:37:46.974Z,22640.0000
2019-05-06T11:38:52.149Z,21944.0000
2019-05-06T11:39:56.322Z,21432.0000
2019-05-06T11:40:59.319Z,20976.0000
2019-05-06T11:42:23.959Z,20552.0000
2019-05-06T11:43:11.962Z,20424.0000
2019-05-06T11:44:15.364Z,20760.0000
2019-05-06T11:45:19.290Z,21256.0000
2019-05-06T11:46:22.850Z,21808.0000
2019-05-06T11:47:26.288Z,22352.0000
2019-05-06T11:48:29.287Z,22840.0000
2019-05-06T11:49:32.748Z,23776.0000
2019-05-06T11:50:36.284Z,25128.0000
2019-05-06T11:51:39.339Z,26480.0000
2019-05-06T11:52:43.674Z,27792.0000
2019-05-06T11:53:47.304Z,29224.0000
2019-05-06T11:54:52.821Z,30616.0000
2019-05-06T11:55:56.330Z,31808.0000
2019-05-06T11:56:59.294Z,32288.0000
2019-05-06T11:58:02.706Z,32472.0000
2019-05-06T11:59:06.301Z,33056.0000
2019-05-06T12:00:12.504Z,33864.0000
2019-05-06T12:01:16.306Z,34712.0000
2019-05-06T12:02:20.297Z,35424.0000
2019-05-06T12:03:23.433Z,36360.0000
2019-05-06T12:04:28.301Z,37272.0000
2019-05-06T12:05:33.012Z,38000.0000
2019-05-06T12:06:36.367Z,39192.0000
2019-05-06T12:07:40.340Z,41008.0000
2019-05-06T12:08:43.370Z,42592.0000
2019-05-06T12:09:47.325Z,43368.0000
2019-05-06T12:10:52.018Z,43768.0000
2019-05-06T12:11:55.301Z,43040.0000
2019-05-06T12:12:59.330Z,42904.0000
2019-05-06T12:14:02.647Z,43392.0000
2019-05-06T12:15:07.162Z,43992.0000
2019-05-06T12:16:13.731Z,43888.0000
2019-05-06T12:17:18.326Z,41152.0000
2019-05-06T12:18:23.071Z,39672.0000
2019-05-06T12:19:26.399Z,38448.0000
2019-05-06T12:20:30.318Z,36928.0000
2019-05-06T12:21:33.294Z,36488.0000
2019-05-06T12:22:36.315Z,35968.0000
2019-05-06T12:23:39.324Z,36232.0000
2019-05-06T12:24:43.308Z,36136.0000